Time;durP1;ratioP1;P1;durP2;ratioP2;P2;SDS_P1;SDS_P2;PMS_P1;PMS_P2;Temp;Humidity;BMP_temperature;BMP_pressure;BME280_temperature;BME280_humidity;BME280_pressure;Samples;Min_cycle;Max_cycle;Signal;HPM_P1;HPM_P2
2023/11/11 00:00:06;;;;;;;1.73;0.87;;;;;;;7.08;100.00;94760.81;5036100;28;20255;-66
2023/11/11 00:02:33;;;;;;;1.73;0.90;;;;;;;7.16;100.00;94758.06;5035396;28;20212;-66
2023/11/11 00:04:59;;;;;;;0.60;0.60;;;;;;;7.07;100.00;94753.16;5034682;28;20232;-68
2023/11/11 00:07:26;;;;;;;1.63;0.90;;;;;;;7.24;100.00;94754.47;5036079;28;20237;-68
2023/11/11 00:09:54;;;;;;;1.30;0.80;;;;;;;7.45;100.00;94758.63;5036131;28;20201;-65
2023/11/11 00:12:21;;;;;;;1.17;1.03;;;;;;;7.33;100.00;94743.63;5035787;28;20208;-67
2023/11/11 00:14:47;;;;;;;0.67;0.67;;;;;;;7.48;100.00;94753.00;5035055;28;20228;-65
2023/11/11 00:17:14;;;;;;;1.30;0.90;;;;;;;7.46;100.00;94757.63;5035686;28;20201;-66
2023/11/11 00:19:42;;;;;;;0.70;0.70;;;;;;;7.61;100.00;94750.47;5035733;28;20576;-68
2023/11/11 00:22:10;;;;;;;0.50;0.50;;;;;;;7.70;100.00;94757.16;5035394;28;20201;-67
2023/11/11 00:24:37;;;;;;;0.73;0.63;;;;;;;7.60;100.00;94750.63;5035103;28;20225;-68
2023/11/11 00:27:06;;;;;;;1.17;0.77;;;;;;;7.93;100.00;94747.16;5035134;28;20225;-67
2023/11/11 00:29:33;;;;;;;2.67;0.77;;;;;;;7.59;100.00;94749.84;5035779;28;21091;-67
2023/11/11 00:31:59;;;;;;;0.73;0.60;;;;;;;7.65;100.00;94741.19;5035980;28;20209;-67
2023/11/11 00:34:26;;;;;;;1.07;0.70;;;;;;;7.74;100.00;94733.94;5035022;28;20227;-67
2023/11/11 00:36:52;;;;;;;1.53;0.83;;;;;;;7.59;100.00;94741.16;5035643;28;21146;-66
2023/11/11 00:39:20;;;;;;;2.77;1.30;;;;;;;7.45;100.00;94740.28;5035722;28;20263;-68
2023/11/11 00:41:47;;;;;;;1.57;1.00;;;;;;;7.35;100.00;94744.25;5035764;28;20208;-68
2023/11/11 00:44:15;;;;;;;0.93;0.67;;;;;;;7.58;100.00;94747.41;5034410;28;20299;-66
2023/11/11 00:46:41;;;;;;;0.50;0.50;;;;;;;7.47;100.00;94754.00;5035781;28;20225;-67
2023/11/11 00:49:09;;;;;;;1.03;0.50;;;;;;;7.58;100.00;94752.66;5035345;28;20202;-67
2023/11/11 00:51:39;;;;;;;0.43;0.40;;;;;;;7.43;100.00;94752.78;5035038;28;20201;-66
2023/11/11 00:54:06;;;;;;;0.83;0.60;;;;;;;7.25;100.00;94756.09;5034511;28;20308;-68
2023/11/11 00:56:32;;;;;;;0.93;0.70;;;;;;;7.26;100.00;94756.69;5035629;28;20197;-68
2023/11/11 00:58:59;;;;;;;1.83;0.90;;;;;;;7.22;100.00;94757.28;5034661;28;20220;-68
2023/11/11 01:01:27;;;;;;;0.53;0.53;;;;;;;7.39;100.00;94766.44;5035835;28;20220;-67
2023/11/11 01:03:53;;;;;;;0.50;0.50;;;;;;;7.23;100.00;94766.78;5034909;28;20221;-67
2023/11/11 01:06:20;;;;;;;1.07;0.70;;;;;;;7.30;100.00;94755.31;5035302;28;20226;-65
2023/11/11 01:08:47;;;;;;;2.83;0.60;;;;;;;7.32;100.00;94769.03;5036644;28;21039;-65
2023/11/11 01:11:15;;;;;;;0.97;0.60;;;;;;;7.30;100.00;94768.41;5037923;28;20949;-68
2023/11/11 01:13:42;;;;;;;0.50;0.50;;;;;;;7.11;100.00;94768.28;5038782;28;20701;-68
2023/11/11 01:16:08;;;;;;;0.83;0.57;;;;;;;7.02;100.00;94763.41;5039699;28;20212;-68
2023/11/11 01:18:36;;;;;;;0.70;0.67;;;;;;;7.10;100.00;94761.44;5038726;28;20193;-68
2023/11/11 01:21:03;;;;;;;1.20;0.47;;;;;;;7.08;100.00;94763.44;5037869;28;20316;-67
2023/11/11 01:23:33;;;;;;;0.80;0.63;;;;;;;7.10;100.00;94764.03;5038208;28;20444;-67
2023/11/11 01:25:59;;;;;;;1.03;0.70;;;;;;;7.07;100.00;94761.03;5038829;28;20200;-67
2023/11/11 01:28:26;;;;;;;0.40;0.40;;;;;;;6.99;100.00;94761.19;5038928;28;20229;-67
2023/11/11 01:30:53;;;;;;;0.47;0.47;;;;;;;7.02;100.00;94758.97;5038972;28;20197;-67
2023/11/11 01:33:20;;;;;;;1.20;0.50;;;;;;;7.09;100.00;94756.38;5037647;28;20232;-67
2023/11/11 01:35:48;;;;;;;0.73;0.50;;;;;;;7.09;100.00;94766.84;5037309;28;20647;-67
2023/11/11 01:38:15;;;;;;;2.90;0.50;;;;;;;7.19;100.00;94768.13;5038868;28;20754;-67
2023/11/11 01:40:41;;;;;;;1.03;0.57;;;;;;;7.22;100.00;94766.94;5038400;28;20212;-67
2023/11/11 01:43:10;;;;;;;0.57;0.57;;;;;;;7.25;100.00;94772.63;5037690;28;20729;-67
2023/11/11 01:45:38;;;;;;;2.47;0.60;;;;;;;7.19;100.00;94769.97;5038760;28;20205;-67
2023/11/11 01:48:07;;;;;;;0.70;0.70;;;;;;;7.43;100.00;94779.00;5038797;28;20217;-67
2023/11/11 01:50:34;;;;;;;4.13;0.70;;;;;;;7.26;100.00;94774.25;5038017;28;20205;-67
2023/11/11 01:53:02;;;;;;;0.60;0.60;;;;;;;7.48;100.00;94773.94;5037498;28;20236;-67
2023/11/11 01:55:29;;;;;;;0.97;0.60;;;;;;;7.48;100.00;94768.72;5037605;28;20937;-67
2023/11/11 01:57:55;;;;;;;0.53;0.53;;;;;;;7.24;100.00;94767.56;5038508;28;20378;-67
2023/11/11 02:00:22;;;;;;;1.17;0.60;;;;;;;7.39;100.00;94775.13;5037401;28;20205;-67
2023/11/11 02:02:49;;;;;;;0.70;0.70;;;;;;;7.27;100.00;94771.44;5037652;28;20852;-65
2023/11/11 02:05:15;;;;;;;2.57;0.70;;;;;;;7.27;100.00;94775.88;5037527;28;20201;-67
2023/11/11 02:07:42;;;;;;;1.00;0.70;;;;;;;7.27;100.00;94781.91;5037559;28;20221;-65
2023/11/11 02:10:10;;;;;;;2.30;0.67;;;;;;;7.40;100.00;94768.88;5038224;28;20212;-67
2023/11/11 02:12:37;;;;;;;1.47;0.57;;;;;;;7.38;100.00;94776.13;5038190;28;20212;-67
2023/11/11 02:15:05;;;;;;;0.60;0.60;;;;;;;7.41;100.00;94775.75;5037103;28;20201;-67
2023/11/11 02:17:31;;;;;;;0.40;0.40;;;;;;;7.31;100.00;94780.50;5038032;28;20288;-67
2023/11/11 02:19:58;;;;;;;0.50;0.50;;;;;;;7.44;100.00;94777.97;5037993;28;20213;-67
2023/11/11 02:22:25;;;;;;;0.60;0.50;;;;;;;7.37;100.00;94789.44;5036991;28;20682;-67
2023/11/11 02:24:59;;;;;;;0.50;0.50;;;;;;;7.42;100.00;94779.16;5036507;28;20248;-67
2023/11/11 02:27:26;;;;;;;0.60;0.60;;;;;;;7.43;100.00;94781.63;5038362;28;20243;-67
2023/11/11 02:29:52;;;;;;;0.40;0.40;;;;;;;7.24;100.00;94785.91;5037237;28;20244;-67
2023/11/11 02:32:19;;;;;;;0.50;0.50;;;;;;;7.19;100.00;94785.66;5037571;28;20201;-67
2023/11/11 02:34:45;;;;;;;0.97;0.80;;;;;;;7.28;100.00;94794.00;5036493;28;20731;-67
2023/11/11 02:37:12;;;;;;;0.57;0.47;;;;;;;7.26;100.00;94789.16;5037346;28;20201;-67
2023/11/11 02:39:38;;;;;;;0.40;0.40;;;;;;;7.30;100.00;94783.31;5037223;28;20206;-67
2023/11/11 02:42:06;;;;;;;3.10;0.57;;;;;;;7.49;100.00;94774.78;5036930;28;20212;-67
2023/11/11 02:44:33;;;;;;;0.67;0.67;;;;;;;7.30;100.00;94770.22;5036610;28;20228;-67
2023/11/11 02:46:59;;;;;;;0.67;0.57;;;;;;;7.26;100.00;94772.41;5036580;28;20213;-65
2023/11/11 02:49:26;;;;;;;0.80;0.50;;;;;;;7.19;100.00;94762.09;5037028;28;20220;-66
2023/11/11 02:51:52;;;;;;;0.50;0.50;;;;;;;7.34;100.00;94761.81;5037078;28;20201;-66
2023/11/11 02:54:19;;;;;;;2.00;0.47;;;;;;;7.43;100.00;94765.91;5036380;28;20708;-65
2023/11/11 02:56:45;;;;;;;1.07;0.67;;;;;;;7.26;100.00;94769.00;5036693;28;20197;-67
2023/11/11 02:59:13;;;;;;;0.43;0.40;;;;;;;7.47;100.00;94761.88;5036941;28;20198;-65
2023/11/11 03:01:41;;;;;;;0.50;0.50;;;;;;;7.29;100.00;94761.56;5036595;28;20207;-67
2023/11/11 03:04:08;;;;;;;0.50;0.50;;;;;;;7.26;100.00;94773.44;5035895;28;20229;-67
2023/11/11 03:06:40;;;;;;;0.30;0.30;;;;;;;7.46;100.00;94765.50;5036665;28;20324;-67
2023/11/11 03:09:07;;;;;;;0.77;0.50;;;;;;;7.33;100.00;94783.75;5036733;28;20751;-67
2023/11/11 03:11:33;;;;;;;0.60;0.60;;;;;;;7.09;100.00;94769.47;5036656;28;20213;-67
2023/11/11 03:14:00;;;;;;;0.40;0.40;;;;;;;7.24;100.00;94780.66;5035812;28;20217;-67
2023/11/11 03:16:36;;;;;;;0.40;0.40;;;;;;;7.48;100.00;94783.63;5036726;28;20328;-67
2023/11/11 03:19:03;;;;;;;0.40;0.40;;;;;;;7.28;100.00;94783.53;5036299;28;20192;-67
2023/11/11 03:21:29;;;;;;;0.30;0.30;;;;;;;7.29;100.00;94782.53;5036582;28;20212;-67
2023/11/11 03:23:56;;;;;;;2.40;0.50;;;;;;;7.42;100.00;94795.72;5034158;28;20240;-67
2023/11/11 03:26:24;;;;;;;0.40;0.40;;;;;;;7.44;100.00;94793.69;5035751;28;20205;-67
2023/11/11 03:28:51;;;;;;;0.50;0.50;;;;;;;7.31;100.00;94809.34;5036871;28;20252;-67
2023/11/11 03:31:18;;;;;;;0.40;0.40;;;;;;;7.26;100.00;94807.50;5036589;28;20201;-67
2023/11/11 03:33:46;;;;;;;0.30;0.30;;;;;;;7.29;100.00;94811.34;5034931;28;20217;-67
2023/11/11 03:36:13;;;;;;;0.30;0.30;;;;;;;7.10;100.00;94810.38;5035886;28;20197;-67
2023/11/11 03:38:39;;;;;;;0.30;0.30;;;;;;;7.09;100.00;94819.25;5037206;28;20197;-68
2023/11/11 03:41:07;;;;;;;1.97;0.30;;;;;;;7.33;100.00;94817.81;5036207;28;20671;-67
2023/11/11 03:43:35;;;;;;;0.40;0.40;;;;;;;7.09;100.00;94827.09;5035022;28;20229;-69
2023/11/11 03:46:03;;;;;;;0.37;0.37;;;;;;;7.25;100.00;94834.69;5036047;28;20585;-69
2023/11/11 03:48:29;;;;;;;1.57;0.40;;;;;;;7.17;100.00;94838.25;5036856;28;20602;-68
2023/11/11 03:50:57;;;;;;;0.43;0.40;;;;;;;7.28;100.00;94833.31;5035500;28;20232;-68
2023/11/11 03:53:24;;;;;;;0.30;0.30;;;;;;;7.07;100.00;94845.63;5035011;28;20229;-68
2023/11/11 03:55:50;;;;;;;0.60;0.60;;;;;;;7.18;100.00;94845.13;5036477;28;20738;-68
2023/11/11 03:58:17;;;;;;;0.57;0.57;;;;;;;7.24;100.00;94852.19;5036040;28;20200;-68
2023/11/11 04:00:44;;;;;;;0.60;0.60;;;;;;;7.23;100.00;94847.16;5035675;28;20212;-68
2023/11/11 04:03:11;;;;;;;0.60;0.60;;;;;;;7.17;100.00;94847.94;5035826;28;20221;-68
2023/11/11 04:05:38;;;;;;;0.53;0.53;;;;;;;7.19;100.00;94849.34;5035668;28;20213;-68
2023/11/11 04:08:06;;;;;;;0.63;0.57;;;;;;;7.24;100.00;94860.06;5036062;28;20224;-68
2023/11/11 04:10:32;;;;;;;0.70;0.50;;;;;;;7.37;100.00;94847.88;5035485;28;20213;-69
2023/11/11 04:13:00;;;;;;;1.23;0.60;;;;;;;7.27;100.00;94847.41;5035795;28;20303;-68
2023/11/11 04:15:27;;;;;;;0.50;0.50;;;;;;;7.40;100.00;94857.16;5035639;28;20319;-68
2023/11/11 04:17:53;;;;;;;0.40;0.40;;;;;;;7.37;100.00;94855.75;5035601;28;20207;-69
2023/11/11 04:20:20;;;;;;;0.40;0.40;;;;;;;7.29;100.00;94858.50;5036045;28;20201;-69
2023/11/11 04:22:47;;;;;;;0.30;0.30;;;;;;;7.41;100.00;94854.34;5036216;28;20205;-70
2023/11/11 04:25:15;;;;;;;0.50;0.50;;;;;;;7.55;100.00;94863.13;5035386;28;20427;-70
2023/11/11 04:27:42;;;;;;;0.40;0.40;;;;;;;7.45;100.00;94866.06;5035415;28;20201;-68
2023/11/11 04:30:10;;;;;;;0.30;0.30;;;;;;;7.40;100.00;94884.16;5035803;28;20620;-70
2023/11/11 04:32:38;;;;;;;0.40;0.40;;;;;;;7.31;100.00;94893.16;5035733;28;20205;-69
2023/11/11 04:35:05;;;;;;;0.50;0.50;;;;;;;7.33;100.00;94899.03;5035477;28;20259;-69
2023/11/11 04:37:32;;;;;;;0.30;0.30;;;;;;;7.26;100.00;94905.22;5035883;28;20209;-68
2023/11/11 04:39:58;;;;;;;0.20;0.20;;;;;;;7.26;100.00;94909.66;5035281;28;20201;-68
2023/11/11 04:42:27;;;;;;;0.30;0.30;;;;;;;7.28;100.00;94911.91;5035509;28;20209;-68
2023/11/11 04:44:54;;;;;;;0.37;0.37;;;;;;;7.23;100.00;94916.09;5035347;28;20283;-68
2023/11/11 04:47:21;;;;;;;0.30;0.30;;;;;;;7.13;100.00;94904.28;5039086;28;20197;-67
2023/11/11 04:49:48;;;;;;;0.30;0.30;;;;;;;7.08;100.00;94923.19;5039000;28;20225;-68
2023/11/11 04:52:14;;;;;;;0.30;0.30;;;;;;;7.13;100.00;94925.25;5039896;28;20678;-68
2023/11/11 04:54:41;;;;;;;0.30;0.30;;;;;;;7.21;100.00;94931.16;5038767;28;20225;-68
2023/11/11 04:57:08;;;;;;;0.53;0.53;;;;;;;7.38;100.00;94929.91;5039267;28;20236;-68
2023/11/11 04:59:35;;;;;;;0.50;0.50;;;;;;;7.40;100.00;94946.25;5038479;28;20201;-68
2023/11/11 05:02:04;;;;;;;0.43;0.43;;;;;;;7.16;100.00;94948.47;5039882;28;20202;-68
2023/11/11 05:04:31;;;;;;;0.37;0.37;;;;;;;7.30;100.00;94943.13;5038508;28;20225;-68
2023/11/11 05:06:58;;;;;;;0.50;0.50;;;;;;;7.30;100.00;94954.41;5038907;28;20271;-68
2023/11/11 05:09:25;;;;;;;0.33;0.33;;;;;;;7.30;100.00;94954.41;5039224;28;20225;-68
2023/11/11 05:11:52;;;;;;;0.30;0.30;;;;;;;7.08;100.00;94956.44;5038726;28;20201;-68
2023/11/11 05:14:19;;;;;;;0.33;0.33;;;;;;;7.02;100.00;94959.81;5038116;28;20231;-68
2023/11/11 05:16:50;;;;;;;0.40;0.40;;;;;;;7.26;100.00;94968.91;5038788;28;21106;-68
2023/11/11 05:19:18;;;;;;;0.40;0.40;;;;;;;6.92;100.00;94972.38;5039034;28;20197;-68
2023/11/11 05:21:45;;;;;;;0.30;0.30;;;;;;;6.98;100.00;94969.81;5038494;28;20201;-68
2023/11/11 05:24:11;;;;;;;0.40;0.40;;;;;;;7.05;100.00;94981.19;5038561;28;20227;-68
2023/11/11 05:26:39;;;;;;;0.40;0.40;;;;;;;7.21;100.00;94985.38;5038303;28;20205;-68
2023/11/11 05:29:06;;;;;;;0.33;0.33;;;;;;;7.06;100.00;94982.78;5038597;28;20994;-68
2023/11/11 05:31:32;;;;;;;0.50;0.50;;;;;;;7.18;100.00;94993.59;5038988;28;20205;-68
2023/11/11 05:34:00;;;;;;;0.30;0.30;;;;;;;7.20;100.00;94995.03;5038267;28;20256;-69
2023/11/11 05:36:27;;;;;;;0.30;0.30;;;;;;;7.10;100.00;95012.06;5037858;28;20212;-69
2023/11/11 05:38:54;;;;;;;0.60;0.60;;;;;;;7.04;100.00;95000.53;5038386;28;20205;-70
2023/11/11 05:41:21;;;;;;;1.27;0.67;;;;;;;7.17;100.00;95015.56;5038444;28;20316;-69
2023/11/11 05:43:47;;;;;;;0.40;0.40;;;;;;;7.09;100.00;95028.75;5037914;28;20228;-67
2023/11/11 05:46:14;;;;;;;0.67;0.50;;;;;;;7.09;100.00;95029.59;5038688;28;20193;-68
2023/11/11 05:48:41;;;;;;;0.50;0.50;;;;;;;7.35;100.00;95041.13;5038310;28;20243;-67
2023/11/11 05:51:09;;;;;;;0.60;0.50;;;;;;;7.33;100.00;95050.19;5038050;28;20207;-68
2023/11/11 05:53:36;;;;;;;2.60;0.83;;;;;;;7.27;100.00;95059.59;5037492;28;20225;-68
2023/11/11 05:56:04;;;;;;;0.83;0.60;;;;;;;7.35;100.00;95069.97;5037838;28;20201;-68
2023/11/11 05:58:31;;;;;;;0.40;0.40;;;;;;;7.23;100.00;95062.78;5037974;28;20205;-68
2023/11/11 06:00:58;;;;;;;0.83;0.60;;;;;;;7.22;100.00;95082.13;5038135;28;20347;-68
2023/11/11 06:03:25;;;;;;;0.70;0.70;;;;;;;7.13;100.00;95074.53;5037082;28;20221;-68
2023/11/11 06:05:51;;;;;;;0.50;0.50;;;;;;;7.24;100.00;95082.72;5037574;28;20271;-68
2023/11/11 06:08:19;;;;;;;1.63;0.53;;;;;;;7.28;100.00;95079.56;5037851;28;20236;-68
2023/11/11 06:10:46;;;;;;;0.70;0.50;;;;;;;7.19;100.00;95084.28;5036657;28;20580;-68
2023/11/11 06:13:13;;;;;;;0.50;0.50;;;;;;;7.13;100.00;95087.63;5036442;28;20221;-67
2023/11/11 06:15:39;;;;;;;1.40;0.77;;;;;;;7.23;100.00;95098.63;5038365;28;20208;-67
2023/11/11 06:18:05;;;;;;;0.40;0.40;;;;;;;7.10;100.00;95103.72;5038007;28;20252;-68
2023/11/11 06:20:32;;;;;;;0.87;0.60;;;;;;;7.14;100.00;95118.91;5037401;28;20212;-68
2023/11/11 06:22:59;;;;;;;1.40;0.73;;;;;;;7.22;100.00;95121.41;5037815;28;20272;-68
2023/11/11 06:25:27;;;;;;;0.80;0.60;;;;;;;7.37;100.00;95127.44;5037008;28;20205;-68
2023/11/11 06:27:53;;;;;;;0.50;0.50;;;;;;;7.26;100.00;95125.28;5036982;28;20212;-68
2023/11/11 06:30:20;;;;;;;0.60;0.60;;;;;;;7.28;100.00;95131.16;5037526;28;20228;-68
2023/11/11 06:32:49;;;;;;;0.77;0.60;;;;;;;7.09;100.00;95142.22;5036945;28;20296;-69
2023/11/11 06:35:16;;;;;;;0.60;0.60;;;;;;;7.18;100.00;95137.66;5036913;28;20578;-68
2023/11/11 06:37:42;;;;;;;1.20;0.50;;;;;;;7.01;100.00;95147.53;5037115;28;20209;-67
2023/11/11 06:40:10;;;;;;;0.97;0.60;;;;;;;7.21;100.00;95145.19;5037841;28;20885;-68
2023/11/11 06:42:38;;;;;;;0.63;0.40;;;;;;;7.23;100.00;95154.47;5037407;28;20209;-67
2023/11/11 06:45:06;;;;;;;0.90;0.70;;;;;;;7.21;100.00;95158.28;5036495;28;20207;-68
2023/11/11 06:47:32;;;;;;;1.63;0.93;;;;;;;7.19;100.00;95168.13;5037021;28;20220;-69
2023/11/11 06:49:59;;;;;;;0.80;0.80;;;;;;;7.17;100.00;95168.31;5037065;28;20232;-68
2023/11/11 06:52:25;;;;;;;1.80;0.77;;;;;;;7.19;100.00;95165.50;5037384;28;20594;-67
2023/11/11 06:54:52;;;;;;;0.80;0.70;;;;;;;7.25;100.00;95170.81;5036356;28;20232;-67
2023/11/11 06:57:19;;;;;;;0.87;0.70;;;;;;;7.15;100.00;95187.81;5036998;28;20201;-68
2023/11/11 06:59:47;;;;;;;1.53;0.90;;;;;;;7.10;100.00;95193.56;5037260;28;20263;-66
2023/11/11 07:02:14;;;;;;;0.60;0.60;;;;;;;7.05;100.00;95189.88;5036514;28;21197;-68
2023/11/11 07:04:41;;;;;;;1.20;0.80;;;;;;;7.17;100.00;95204.97;5035542;28;20225;-67
2023/11/11 07:07:11;;;;;;;2.57;0.83;;;;;;;7.11;100.00;95215.38;5036536;28;20263;-68
2023/11/11 07:09:39;;;;;;;1.13;0.90;;;;;;;7.09;100.00;95217.34;5034944;28;20231;-69
2023/11/11 07:12:06;;;;;;;1.43;0.90;;;;;;;7.26;100.00;95222.22;5036098;28;20197;-68
2023/11/11 07:14:33;;;;;;;6.63;1.73;;;;;;;7.04;100.00;95210.03;5035954;28;20232;-68
2023/11/11 07:17:01;;;;;;;1.47;1.00;;;;;;;7.24;100.00;95213.72;5036398;28;20520;-68
2023/11/11 07:19:27;;;;;;;2.00;1.33;;;;;;;7.15;100.00;95219.25;5036285;28;20197;-68
2023/11/11 07:21:54;;;;;;;0.90;0.90;;;;;;;7.06;100.00;95231.59;5036259;28;20201;-68
2023/11/11 07:24:22;;;;;;;0.97;0.80;;;;;;;7.01;100.00;95235.75;5036117;28;20220;-67
2023/11/11 07:26:49;;;;;;;2.40;1.23;;;;;;;7.03;100.00;95245.06;5036482;28;20208;-68
2023/11/11 07:29:16;;;;;;;2.27;1.30;;;;;;;7.22;100.00;95248.94;5036349;28;20229;-68
2023/11/11 07:31:42;;;;;;;1.43;1.07;;;;;;;6.99;100.00;95256.09;5036033;28;20205;-67
2023/11/11 07:34:11;;;;;;;1.63;1.03;;;;;;;7.26;100.00;95255.47;5035846;28;21070;-68
2023/11/11 07:36:38;;;;;;;1.13;0.97;;;;;;;6.93;100.00;95256.81;5036141;28;20201;-68
2023/11/11 07:39:06;;;;;;;2.17;1.10;;;;;;;6.99;100.00;95270.00;5036737;28;20292;-68
2023/11/11 07:41:33;;;;;;;2.30;1.30;;;;;;;7.06;100.00;95260.41;5036533;28;20205;-68
2023/11/11 07:44:04;;;;;;;2.93;1.50;;;;;;;7.06;100.00;95264.84;5035604;28;20225;-65
2023/11/11 07:46:32;;;;;;;1.90;1.37;;;;;;;7.20;100.00;95269.28;5035497;28;20242;-68
2023/11/11 07:48:59;;;;;;;5.37;2.23;;;;;;;7.17;100.00;95274.91;5036404;28;20225;-65
2023/11/11 07:51:27;;;;;;;5.37;2.30;;;;;;;7.33;100.00;95276.34;5035747;28;20583;-67
2023/11/11 07:53:54;;;;;;;3.30;1.93;;;;;;;7.32;100.00;95277.34;5035142;28;20336;-66
2023/11/11 07:56:20;;;;;;;4.37;2.33;;;;;;;7.33;100.00;95284.22;5035933;28;20686;-67
2023/11/11 07:58:51;;;;;;;3.93;1.83;;;;;;;7.54;100.00;95276.41;5035826;28;20209;-65
2023/11/11 08:01:17;;;;;;;3.63;1.40;;;;;;;7.50;100.00;95288.28;5036307;28;20235;-67
2023/11/11 08:03:44;;;;;;;4.50;1.90;;;;;;;7.55;100.00;95277.25;5035753;28;20225;-67
2023/11/11 08:06:11;;;;;;;2.30;1.03;;;;;;;7.57;100.00;95283.13;5035469;28;20217;-67
2023/11/11 08:08:40;;;;;;;2.53;1.20;;;;;;;7.74;100.00;95288.00;5034989;28;20204;-65
2023/11/11 08:11:08;;;;;;;3.57;1.77;;;;;;;7.75;100.00;95283.53;5036311;28;20209;-68
2023/11/11 08:13:35;;;;;;;1.47;1.10;;;;;;;7.68;100.00;95290.53;5035112;28;20251;-66
2023/11/11 08:16:02;;;;;;;5.17;1.20;;;;;;;7.62;100.00;95284.19;5035850;28;20216;-67
2023/11/11 08:18:29;;;;;;;2.37;1.10;;;;;;;7.58;100.00;95293.41;5035833;28;20287;-67
2023/11/11 08:20:55;;;;;;;2.40;1.13;;;;;;;7.58;100.00;95297.84;5038447;28;20196;-68
2023/11/11 08:23:22;;;;;;;1.70;1.10;;;;;;;7.71;100.00;95304.06;5039039;28;20217;-68
2023/11/11 08:25:49;;;;;;;3.20;1.27;;;;;;;7.81;100.00;95294.13;5038962;28;20550;-68
2023/11/11 08:28:16;;;;;;;3.13;1.10;;;;;;;7.65;100.00;95302.19;5040010;28;20205;-68
2023/11/11 08:30:42;;;;;;;1.93;1.40;;;;;;;7.68;100.00;95308.88;5039285;28;20229;-68
2023/11/11 08:33:10;;;;;;;2.03;1.50;;;;;;;7.83;100.00;95301.78;5039392;28;20220;-68
2023/11/11 08:35:37;;;;;;;1.37;1.10;;;;;;;7.56;100.00;95316.38;5040071;28;20682;-67
2023/11/11 08:38:04;;;;;;;2.20;1.50;;;;;;;7.84;100.00;95314.75;5039439;28;20358;-67
2023/11/11 08:40:30;;;;;;;2.70;1.70;;;;;;;7.62;100.00;95314.84;5039486;28;20746;-68
2023/11/11 08:42:58;;;;;;;2.90;1.83;;;;;;;7.89;100.00;95312.38;5039657;28;20205;-68
2023/11/11 08:45:24;;;;;;;2.90;1.30;;;;;;;7.86;100.00;95313.53;5038971;28;20220;-68
2023/11/11 08:47:51;;;;;;;1.83;1.23;;;;;;;7.57;100.00;95323.22;5038696;28;20209;-68
2023/11/11 08:50:19;;;;;;;1.17;1.07;;;;;;;7.89;100.00;95313.19;5039665;28;20221;-68
2023/11/11 08:52:46;;;;;;;1.00;0.90;;;;;;;7.75;100.00;95320.25;5038369;28;20201;-68
2023/11/11 08:55:13;;;;;;;1.97;1.20;;;;;;;7.68;100.00;95319.38;5038652;28;20204;-68
2023/11/11 08:57:39;;;;;;;0.83;0.67;;;;;;;8.15;100.00;95304.88;5039645;28;20215;-68
2023/11/11 09:00:09;;;;;;;4.70;1.20;;;;;;;8.34;100.00;95312.94;5039454;28;20194;-68
2023/11/11 09:02:36;;;;;;;1.20;1.10;;;;;;;8.46;100.00;95314.06;5039251;28;20728;-67
2023/11/11 09:05:04;;;;;;;3.80;1.00;;;;;;;8.39;100.00;95313.22;5037485;28;20257;-69
2023/11/11 09:07:31;;;;;;;2.20;1.17;;;;;;;8.39;100.00;95312.38;5036401;28;20228;-70
2023/11/11 09:09:57;;;;;;;2.87;1.10;;;;;;;8.18;100.00;95328.91;5037365;28;20229;-67
2023/11/11 09:12:24;;;;;;;1.77;1.17;;;;;;;8.05;100.00;95318.22;5038710;28;20209;-67
2023/11/11 09:14:52;;;;;;;3.87;1.50;;;;;;;8.44;100.00;95329.22;5036365;28;20243;-67
2023/11/11 09:17:21;;;;;;;2.07;0.90;;;;;;;8.34;100.00;95333.13;5038615;28;20292;-67
2023/11/11 09:19:48;;;;;;;1.93;1.00;;;;;;;8.31;100.00;95341.38;5038006;28;20197;-67
2023/11/11 09:22:15;;;;;;;1.63;1.30;;;;;;;8.31;100.00;95342.19;5038888;28;20263;-67
2023/11/11 09:24:41;;;;;;;1.27;0.93;;;;;;;8.33;100.00;95348.06;5037140;28;20605;-67
2023/11/11 09:27:08;;;;;;;1.10;0.70;;;;;;;8.17;100.00;95357.97;5038210;28;20201;-67
2023/11/11 09:29:34;;;;;;;2.03;1.07;;;;;;;8.38;100.00;95355.41;5038199;28;20221;-67
2023/11/11 09:32:01;;;;;;;0.63;0.63;;;;;;;8.36;100.00;95357.38;5037579;28;20675;-67
2023/11/11 09:34:29;;;;;;;0.97;0.63;;;;;;;8.32;100.00;95359.56;5037690;28;20229;-68
2023/11/11 09:36:55;;;;;;;1.27;0.60;;;;;;;8.44;100.00;95352.00;5037612;28;20655;-68
2023/11/11 09:39:23;;;;;;;1.77;0.70;;;;;;;8.49;100.00;95343.41;5037994;28;20371;-65
2023/11/11 09:41:50;;;;;;;1.87;1.27;;;;;;;8.58;100.00;95346.75;5037377;28;20208;-68
2023/11/11 09:44:17;;;;;;;2.10;0.80;;;;;;;8.63;100.00;95362.72;5037584;28;20248;-66
2023/11/11 09:46:52;;;;;;;12.87;0.90;;;;;;;8.67;100.00;95362.19;5037871;28;20216;-68
2023/11/11 09:49:20;;;;;;;0.83;0.73;;;;;;;8.49;100.00;95385.41;5037318;28;20644;-68
2023/11/11 09:51:48;;;;;;;2.73;1.13;;;;;;;8.50;100.00;95380.97;5037281;28;20629;-67
2023/11/11 09:54:15;;;;;;;1.20;0.80;;;;;;;8.61;100.00;95378.66;5036984;28;20217;-67
2023/11/11 09:56:43;;;;;;;1.47;1.00;;;;;;;9.14;100.00;95370.31;5037586;28;20453;-66
2023/11/11 09:59:10;;;;;;;1.70;0.97;;;;;;;9.01;100.00;95369.38;5037666;28;20197;-68
2023/11/11 10:01:39;;;;;;;4.00;1.67;;;;;;;9.24;100.00;95371.63;5037495;28;20212;-67
2023/11/11 10:04:06;;;;;;;1.00;0.90;;;;;;;8.98;100.00;95369.75;5036731;28;20221;-68
2023/11/11 10:06:33;;;;;;;3.70;1.73;;;;;;;9.18;100.00;95371.56;5037209;28;20519;-68
2023/11/11 10:09:02;;;;;;;1.27;0.70;;;;;;;9.06;100.00;95373.06;5036938;28;20198;-68
2023/11/11 10:11:28;;;;;;;1.53;0.83;;;;;;;8.86;100.00;95366.81;5036917;28;20229;-68
2023/11/11 10:13:55;;;;;;;1.33;1.10;;;;;;;8.69;100.00;95375.94;5036108;28;20604;-68
2023/11/11 10:16:24;;;;;;;0.70;0.70;;;;;;;8.67;100.00;95370.06;5037471;28;20201;-68
2023/11/11 10:18:51;;;;;;;0.60;0.60;;;;;;;8.75;100.00;95367.31;5037313;28;20204;-68
2023/11/11 10:21:20;;;;;;;1.67;1.23;;;;;;;8.97;100.00;95363.69;5037230;28;20575;-68
2023/11/11 10:23:47;;;;;;;2.00;1.20;;;;;;;9.00;100.00;95368.56;5036388;28;20236;-67
2023/11/11 10:26:16;;;;;;;2.53;1.33;;;;;;;9.12;100.00;95359.16;5037027;28;20240;-65
2023/11/11 10:28:46;;;;;;;2.57;1.13;;;;;;;8.85;100.00;95372.25;5036633;28;20923;-68
2023/11/11 10:31:12;;;;;;;1.53;1.10;;;;;;;8.81;100.00;95373.66;5037019;28;20225;-68
2023/11/11 10:33:39;;;;;;;0.77;0.60;;;;;;;9.05;100.00;95366.19;5037494;28;20583;-67
2023/11/11 10:36:07;;;;;;;1.57;0.90;;;;;;;9.25;100.00;95365.38;5036754;28;20197;-66
2023/11/11 10:38:34;;;;;;;1.33;1.20;;;;;;;9.00;100.00;95363.31;5036671;28;20255;-68
2023/11/11 10:41:00;;;;;;;0.70;0.70;;;;;;;9.08;100.00;95360.56;5037028;28;20686;-68
2023/11/11 10:43:28;;;;;;;0.80;0.70;;;;;;;9.39;100.00;95355.75;5035041;28;20232;-67
2023/11/11 10:45:55;;;;;;;1.30;0.70;;;;;;;9.29;99.73;95361.34;5036237;28;20205;-67
2023/11/11 10:48:22;;;;;;;1.00;0.90;;;;;;;9.22;99.46;95355.22;5036704;28;20205;-68
2023/11/11 10:50:51;;;;;;;2.00;0.87;;;;;;;9.71;97.11;95362.06;5036280;28;20232;-67
2023/11/11 10:53:18;;;;;;;0.70;0.70;;;;;;;9.68;96.00;95358.19;5035711;28;20216;-67
2023/11/11 10:55:46;;;;;;;1.10;0.70;;;;;;;9.67;96.48;95346.03;5036474;28;20201;-67
2023/11/11 10:58:17;;;;;;;2.60;1.67;;;;;;;10.32;96.94;95352.50;5036585;28;20203;-68
2023/11/11 11:00:45;;;;;;;0.50;0.50;;;;;;;10.30;92.28;95350.06;5036171;28;20564;-68
2023/11/11 11:03:13;;;;;;;1.10;0.50;;;;;;;10.25;92.70;95351.66;5036050;28;20216;-67
2023/11/11 11:05:49;;;;;;;0.50;0.50;;;;;;;10.26;93.51;95362.00;5036435;28;20219;-67
2023/11/11 11:08:22;;;;;;;0.80;0.80;;;;;;;10.16;94.47;95353.63;5036126;28;20266;-68
2023/11/11 11:11:05;;;;;;;0.60;0.60;;;;;;;10.13;96.18;95361.09;5034717;28;20796;-68
2023/11/11 11:13:34;;;;;;;1.17;1.03;;;;;;;9.90;93.38;95356.13;5036091;28;20217;-68
2023/11/11 11:16:02;;;;;;;1.93;0.63;;;;;;;9.63;95.57;95360.59;5036385;28;20690;-68
2023/11/11 11:18:29;;;;;;;0.77;0.60;;;;;;;9.35;94.23;95373.72;5036020;28;20213;-67
2023/11/11 11:20:55;;;;;;;1.03;0.90;;;;;;;9.59;97.46;95369.88;5035362;28;20204;-67
2023/11/11 11:23:22;;;;;;;2.93;1.43;;;;;;;9.91;97.37;95376.13;5035680;28;20235;-68
2023/11/11 11:25:50;;;;;;;1.97;0.80;;;;;;;9.62;95.24;95370.28;5036056;28;20596;-67
2023/11/11 11:28:22;;;;;;;1.80;0.90;;;;;;;9.78;100.00;95376.06;5035701;28;20994;-67
2023/11/11 11:30:53;;;;;;;1.00;0.90;;;;;;;9.42;100.00;95382.47;5035073;28;20302;-67
2023/11/11 11:33:22;;;;;;;1.87;1.00;;;;;;;9.15;100.00;95390.31;5034104;28;20240;-66